sensor_id;sensor_type;location;lat;lon;timestamp;P1;durP1;ratioP1;P2;durP2;ratioP2
62030;SDS011;62035;52.094;5.112;2022-12-31T00:01:29;5.03;;;3.00;;
62030;SDS011;62035;52.094;5.112;2022-12-31T00:03:57;4.70;;;2.53;;
62030;SDS011;62035;52.094;5.112;2022-12-31T00:06:26;10.70;;;3.90;;
62030;SDS011;62035;52.094;5.112;2022-12-31T00:08:59;4.95;;;2.80;;
62030;SDS011;62035;52.094;5.112;2022-12-31T00:13:57;6.43;;;2.85;;
62030;SDS011;62035;52.094;5.112;2022-12-31T00:16:27;7.72;;;5.78;;
62030;SDS011;62035;52.094;5.112;2022-12-31T00:18:58;7.10;;;4.25;;
62030;SDS011;62035;52.094;5.112;2022-12-31T00:21:28;8.07;;;4.50;;
62030;SDS011;62035;52.094;5.112;2022-12-31T00:23:58;7.18;;;4.72;;
62030;SDS011;62035;52.094;5.112;2022-12-31T00:26:27;7.15;;;4.13;;
62030;SDS011;62035;52.094;5.112;2022-12-31T00:28:57;7.43;;;4.05;;
62030;SDS011;62035;52.094;5.112;2022-12-31T00:31:27;8.30;;;4.65;;
62030;SDS011;62035;52.094;5.112;2022-12-31T00:33:58;6.85;;;4.60;;
62030;SDS011;62035;52.094;5.112;2022-12-31T00:36:27;8.48;;;4.57;;
62030;SDS011;62035;52.094;5.112;2022-12-31T00:38:59;6.70;;;4.10;;
62030;SDS011;62035;52.094;5.112;2022-12-31T00:41:29;6.60;;;4.05;;
62030;SDS011;62035;52.094;5.112;2022-12-31T00:43:58;7.93;;;4.85;;
62030;SDS011;62035;52.094;5.112;2022-12-31T00:46:26;7.90;;;4.07;;
62030;SDS011;62035;52.094;5.112;2022-12-31T00:48:55;9.25;;;3.85;;
62030;SDS011;62035;52.094;5.112;2022-12-31T00:51:23;5.50;;;3.40;;
62030;SDS011;62035;52.094;5.112;2022-12-31T00:53:52;5.45;;;3.45;;
62030;SDS011;62035;52.094;5.112;2022-12-31T00:56:21;6.35;;;3.03;;
62030;SDS011;62035;52.094;5.112;2022-12-31T00:58:51;7.55;;;3.13;;
62030;SDS011;62035;52.094;5.112;2022-12-31T01:01:20;5.75;;;2.67;;
62030;SDS011;62035;52.094;5.112;2022-12-31T01:03:51;8.68;;;3.13;;
62030;SDS011;62035;52.094;5.112;2022-12-31T01:06:22;9.73;;;2.97;;
62030;SDS011;62035;52.094;5.112;2022-12-31T01:08:50;9.85;;;3.00;;
62030;SDS011;62035;52.094;5.112;2022-12-31T01:11:20;4.72;;;2.60;;
62030;SDS011;62035;52.094;5.112;2022-12-31T01:13:50;8.95;;;3.10;;
62030;SDS011;62035;52.094;5.112;2022-12-31T01:16:21;9.93;;;2.72;;
62030;SDS011;62035;52.094;5.112;2022-12-31T01:18:52;7.33;;;2.73;;
62030;SDS011;62035;52.094;5.112;2022-12-31T01:21:20;8.60;;;2.58;;
62030;SDS011;62035;52.094;5.112;2022-12-31T01:23:49;5.55;;;2.20;;
62030;SDS011;62035;52.094;5.112;2022-12-31T01:26:17;8.60;;;2.20;;
62030;SDS011;62035;52.094;5.112;2022-12-31T01:28:46;7.85;;;2.15;;
62030;SDS011;62035;52.094;5.112;2022-12-31T01:31:16;7.53;;;2.13;;
62030;SDS011;62035;52.094;5.112;2022-12-31T01:33:46;8.25;;;1.80;;
62030;SDS011;62035;52.094;5.112;2022-12-31T01:36:16;6.03;;;2.25;;
62030;SDS011;62035;52.094;5.112;2022-12-31T01:38:47;8.35;;;2.80;;
62030;SDS011;62035;52.094;5.112;2022-12-31T01:41:17;9.73;;;2.13;;
62030;SDS011;62035;52.094;5.112;2022-12-31T01:43:49;4.80;;;1.90;;
62030;SDS011;62035;52.094;5.112;2022-12-31T01:46:23;4.60;;;2.17;;
62030;SDS011;62035;52.094;5.112;2022-12-31T01:49:00;5.72;;;1.83;;
62030;SDS011;62035;52.094;5.112;2022-12-31T01:51:35;5.93;;;2.60;;
62030;SDS011;62035;52.094;5.112;2022-12-31T01:54:06;9.73;;;2.20;;
62030;SDS011;62035;52.094;5.112;2022-12-31T01:56:38;8.82;;;2.97;;
62030;SDS011;62035;52.094;5.112;2022-12-31T01:59:11;6.05;;;2.28;;
62030;SDS011;62035;52.094;5.112;2022-12-31T02:01:42;12.10;;;2.88;;
62030;SDS011;62035;52.094;5.112;2022-12-31T02:04:13;9.07;;;3.15;;
62030;SDS011;62035;52.094;5.112;2022-12-31T02:06:43;8.13;;;2.20;;
62030;SDS011;62035;52.094;5.112;2022-12-31T02:09:19;3.72;;;1.90;;
62030;SDS011;62035;52.094;5.112;2022-12-31T02:11:46;8.82;;;2.70;;
62030;SDS011;62035;52.094;5.112;2022-12-31T02:14:15;5.68;;;2.22;;
62030;SDS011;62035;52.094;5.112;2022-12-31T02:16:51;7.22;;;2.30;;
62030;SDS011;62035;52.094;5.112;2022-12-31T02:19:39;5.38;;;2.13;;
62030;SDS011;62035;52.094;5.112;2022-12-31T02:22:51;5.70;;;2.50;;
62030;SDS011;62035;52.094;5.112;2022-12-31T02:29:12;5.65;;;1.85;;
62030;SDS011;62035;52.094;5.112;2022-12-31T02:32:05;4.25;;;1.80;;
62030;SDS011;62035;52.094;5.112;2022-12-31T02:34:43;5.18;;;1.63;;
62030;SDS011;62035;52.094;5.112;2022-12-31T02:37:24;5.13;;;1.55;;
62030;SDS011;62035;52.094;5.112;2022-12-31T02:39:57;7.30;;;1.65;;
62030;SDS011;62035;52.094;5.112;2022-12-31T02:42:26;6.40;;;1.60;;
62030;SDS011;62035;52.094;5.112;2022-12-31T02:44:54;6.03;;;1.50;;
62030;SDS011;62035;52.094;5.112;2022-12-31T02:47:26;3.55;;;1.25;;
62030;SDS011;62035;52.094;5.112;2022-12-31T02:50:19;4.07;;;1.30;;
62030;SDS011;62035;52.094;5.112;2022-12-31T02:53:12;3.67;;;1.30;;
62030;SDS011;62035;52.094;5.112;2022-12-31T02:56:07;4.65;;;1.30;;
62030;SDS011;62035;52.094;5.112;2022-12-31T02:58:47;3.78;;;1.00;;
62030;SDS011;62035;52.094;5.112;2022-12-31T03:01:45;4.32;;;1.35;;
62030;SDS011;62035;52.094;5.112;2022-12-31T03:04:41;5.28;;;1.70;;
62030;SDS011;62035;52.094;5.112;2022-12-31T03:07:16;3.55;;;1.58;;
62030;SDS011;62035;52.094;5.112;2022-12-31T03:09:47;4.43;;;1.63;;
62030;SDS011;62035;52.094;5.112;2022-12-31T03:12:16;4.82;;;2.10;;
62030;SDS011;62035;52.094;5.112;2022-12-31T03:15:04;7.38;;;1.58;;
62030;SDS011;62035;52.094;5.112;2022-12-31T03:17:45;8.68;;;1.70;;
62030;SDS011;62035;52.094;5.112;2022-12-31T03:20:28;5.30;;;1.42;;
62030;SDS011;62035;52.094;5.112;2022-12-31T03:23:17;8.07;;;1.80;;
62030;SDS011;62035;52.094;5.112;2022-12-31T03:25:48;5.22;;;1.50;;
62030;SDS011;62035;52.094;5.112;2022-12-31T03:28:17;8.55;;;2.17;;
62030;SDS011;62035;52.094;5.112;2022-12-31T03:30:47;7.60;;;1.83;;
62030;SDS011;62035;52.094;5.112;2022-12-31T03:35:48;5.07;;;1.50;;
62030;SDS011;62035;52.094;5.112;2022-12-31T03:38:17;4.03;;;1.50;;
62030;SDS011;62035;52.094;5.112;2022-12-31T03:40:47;5.47;;;1.73;;
62030;SDS011;62035;52.094;5.112;2022-12-31T03:43:17;8.43;;;1.80;;
62030;SDS011;62035;52.094;5.112;2022-12-31T03:45:46;4.43;;;1.90;;
62030;SDS011;62035;52.094;5.112;2022-12-31T03:48:16;6.55;;;1.40;;
62030;SDS011;62035;52.094;5.112;2022-12-31T03:50:44;8.23;;;2.00;;
62030;SDS011;62035;52.094;5.112;2022-12-31T03:53:13;4.93;;;1.40;;
62030;SDS011;62035;52.094;5.112;2022-12-31T03:55:41;4.15;;;1.50;;
62030;SDS011;62035;52.094;5.112;2022-12-31T03:58:09;5.90;;;1.55;;
62030;SDS011;62035;52.094;5.112;2022-12-31T04:00:37;6.90;;;1.80;;
62030;SDS011;62035;52.094;5.112;2022-12-31T04:03:04;4.95;;;1.67;;
62030;SDS011;62035;52.094;5.112;2022-12-31T04:05:32;6.75;;;1.52;;
62030;SDS011;62035;52.094;5.112;2022-12-31T04:07:59;10.60;;;2.28;;
62030;SDS011;62035;52.094;5.112;2022-12-31T04:10:29;14.02;;;2.20;;
62030;SDS011;62035;52.094;5.112;2022-12-31T04:12:56;7.85;;;1.75;;
62030;SDS011;62035;52.094;5.112;2022-12-31T04:15:25;9.43;;;2.10;;
62030;SDS011;62035;52.094;5.112;2022-12-31T04:17:52;6.13;;;1.88;;
62030;SDS011;62035;52.094;5.112;2022-12-31T04:20:20;6.80;;;2.83;;
62030;SDS011;62035;52.094;5.112;2022-12-31T04:22:47;6.35;;;1.73;;
62030;SDS011;62035;52.094;5.112;2022-12-31T04:25:15;3.13;;;1.80;;
62030;SDS011;62035;52.094;5.112;2022-12-31T04:27:44;5.35;;;1.80;;
62030;SDS011;62035;52.094;5.112;2022-12-31T04:30:12;4.05;;;1.83;;
62030;SDS011;62035;52.094;5.112;2022-12-31T04:32:40;7.72;;;2.05;;
62030;SDS011;62035;52.094;5.112;2022-12-31T04:35:08;5.97;;;1.80;;
62030;SDS011;62035;52.094;5.112;2022-12-31T04:37:37;6.18;;;2.22;;
62030;SDS011;62035;52.094;5.112;2022-12-31T04:40:05;5.68;;;2.97;;
62030;SDS011;62035;52.094;5.112;2022-12-31T04:42:34;3.75;;;2.42;;
62030;SDS011;62035;52.094;5.112;2022-12-31T04:45:04;6.53;;;2.10;;
62030;SDS011;62035;52.094;5.112;2022-12-31T04:47:33;6.03;;;2.72;;
62030;SDS011;62035;52.094;5.112;2022-12-31T04:50:01;5.22;;;2.63;;
62030;SDS011;62035;52.094;5.112;2022-12-31T04:52:29;5.28;;;2.83;;
62030;SDS011;62035;52.094;5.112;2022-12-31T04:54:57;4.93;;;2.72;;
62030;SDS011;62035;52.094;5.112;2022-12-31T04:57:24;7.43;;;3.47;;
62030;SDS011;62035;52.094;5.112;2022-12-31T04:59:52;4.95;;;3.28;;
62030;SDS011;62035;52.094;5.112;2022-12-31T05:02:21;4.90;;;3.35;;
62030;SDS011;62035;52.094;5.112;2022-12-31T05:04:48;6.53;;;3.53;;
62030;SDS011;62035;52.094;5.112;2022-12-31T05:07:16;5.35;;;3.85;;
62030;SDS011;62035;52.094;5.112;2022-12-31T05:09:43;8.13;;;3.92;;
62030;SDS011;62035;52.094;5.112;2022-12-31T05:12:11;7.63;;;4.32;;
62030;SDS011;62035;52.094;5.112;2022-12-31T05:14:38;7.88;;;4.00;;
62030;SDS011;62035;52.094;5.112;2022-12-31T05:17:06;6.95;;;3.97;;
62030;SDS011;62035;52.094;5.112;2022-12-31T05:19:35;5.32;;;3.72;;
62030;SDS011;62035;52.094;5.112;2022-12-31T05:22:03;6.22;;;3.78;;
62030;SDS011;62035;52.094;5.112;2022-12-31T05:24:48;7.57;;;3.95;;
62030;SDS011;62035;52.094;5.112;2022-12-31T05:27:17;5.90;;;3.53;;
62030;SDS011;62035;52.094;5.112;2022-12-31T05:29:44;4.68;;;3.58;;
62030;SDS011;62035;52.094;5.112;2022-12-31T05:32:12;5.95;;;3.80;;
62030;SDS011;62035;52.094;5.112;2022-12-31T05:34:41;5.13;;;3.65;;
62030;SDS011;62035;52.094;5.112;2022-12-31T05:37:09;6.43;;;4.20;;
62030;SDS011;62035;52.094;5.112;2022-12-31T05:39:37;5.28;;;3.45;;
62030;SDS011;62035;52.094;5.112;2022-12-31T05:42:04;6.35;;;3.28;;
62030;SDS011;62035;52.094;5.112;2022-12-31T05:44:32;4.88;;;3.28;;
62030;SDS011;62035;52.094;5.112;2022-12-31T05:46:59;3.72;;;2.88;;
62030;SDS011;62035;52.094;5.112;2022-12-31T05:49:27;3.42;;;2.50;;
62030;SDS011;62035;52.094;5.112;2022-12-31T05:51:56;3.90;;;2.60;;
62030;SDS011;62035;52.094;5.112;2022-12-31T05:54:23;4.18;;;2.80;;
62030;SDS011;62035;52.094;5.112;2022-12-31T05:56:51;4.10;;;2.45;;
62030;SDS011;62035;52.094;5.112;2022-12-31T05:59:19;3.55;;;2.25;;
62030;SDS011;62035;52.094;5.112;2022-12-31T06:01:46;3.05;;;2.40;;
62030;SDS011;62035;52.094;5.112;2022-12-31T06:04:14;5.35;;;2.50;;
62030;SDS011;62035;52.094;5.112;2022-12-31T06:06:41;3.33;;;2.25;;
62030;SDS011;62035;52.094;5.112;2022-12-31T06:09:10;3.50;;;2.45;;
62030;SDS011;62035;52.094;5.112;2022-12-31T06:11:38;3.13;;;2.30;;
62030;SDS011;62035;52.094;5.112;2022-12-31T06:14:06;2.75;;;2.10;;
62030;SDS011;62035;52.094;5.112;2022-12-31T06:16:34;4.10;;;2.45;;
62030;SDS011;62035;52.094;5.112;2022-12-31T06:19:02;3.85;;;2.30;;
62030;SDS011;62035;52.094;5.112;2022-12-31T06:21:30;3.33;;;2.60;;
62030;SDS011;62035;52.094;5.112;2022-12-31T06:23:57;3.90;;;2.53;;
62030;SDS011;62035;52.094;5.112;2022-12-31T06:26:26;3.38;;;2.53;;
62030;SDS011;62035;52.094;5.112;2022-12-31T06:28:54;5.25;;;2.92;;
62030;SDS011;62035;52.094;5.112;2022-12-31T06:31:21;4.40;;;3.28;;
62030;SDS011;62035;52.094;5.112;2022-12-31T06:33:49;4.80;;;3.28;;
62030;SDS011;62035;52.094;5.112;2022-12-31T06:36:17;6.38;;;4.10;;
62030;SDS011;62035;52.094;5.112;2022-12-31T06:38:46;5.63;;;4.53;;
62030;SDS011;62035;52.094;5.112;2022-12-31T06:41:15;6.38;;;4.60;;
62030;SDS011;62035;52.094;5.112;2022-12-31T06:43:45;7.28;;;5.25;;
62030;SDS011;62035;52.094;5.112;2022-12-31T06:46:13;8.85;;;5.90;;
62030;SDS011;62035;52.094;5.112;2022-12-31T06:48:43;9.05;;;6.18;;
62030;SDS011;62035;52.094;5.112;2022-12-31T06:51:12;11.93;;;6.65;;
62030;SDS011;62035;52.094;5.112;2022-12-31T06:53:43;11.25;;;6.82;;
62030;SDS011;62035;52.094;5.112;2022-12-31T06:56:13;10.25;;;6.28;;
62030;SDS011;62035;52.094;5.112;2022-12-31T06:58:45;8.38;;;5.32;;
62030;SDS011;62035;52.094;5.112;2022-12-31T07:01:21;5.88;;;4.28;;
62030;SDS011;62035;52.094;5.112;2022-12-31T07:04:03;6.90;;;4.18;;
62030;SDS011;62035;52.094;5.112;2022-12-31T07:07:00;4.68;;;3.00;;
62030;SDS011;62035;52.094;5.112;2022-12-31T07:09:39;4.38;;;2.60;;
62030;SDS011;62035;52.094;5.112;2022-12-31T07:12:22;2.72;;;1.80;;
62030;SDS011;62035;52.094;5.112;2022-12-31T07:15:08;2.45;;;1.40;;
62030;SDS011;62035;52.094;5.112;2022-12-31T07:17:46;2.67;;;1.20;;
62030;SDS011;62035;52.094;5.112;2022-12-31T07:20:26;1.80;;;1.00;;
62030;SDS011;62035;52.094;5.112;2022-12-31T07:22:54;1.30;;;0.80;;
62030;SDS011;62035;52.094;5.112;2022-12-31T07:25:23;2.97;;;0.80;;
62030;SDS011;62035;52.094;5.112;2022-12-31T07:27:58;2.15;;;0.82;;
62030;SDS011;62035;52.094;5.112;2022-12-31T07:30:45;0.98;;;0.70;;
62030;SDS011;62035;52.094;5.112;2022-12-31T07:33:31;2.75;;;0.80;;
62030;SDS011;62035;52.094;5.112;2022-12-31T07:36:21;1.13;;;0.68;;
62030;SDS011;62035;52.094;5.112;2022-12-31T07:39:20;3.47;;;0.70;;
62030;SDS011;62035;52.094;5.112;2022-12-31T07:41:59;2.47;;;0.70;;
62030;SDS011;62035;52.094;5.112;2022-12-31T07:44:40;0.77;;;0.70;;
62030;SDS011;62035;52.094;5.112;2022-12-31T07:47:23;3.30;;;0.77;;
62030;SDS011;62035;52.094;5.112;2022-12-31T07:49:54;1.00;;;0.70;;
62030;SDS011;62035;52.094;5.112;2022-12-31T07:52:23;1.50;;;0.80;;
62030;SDS011;62035;52.094;5.112;2022-12-31T07:54:52;1.30;;;0.80;;
62030;SDS011;62035;52.094;5.112;2022-12-31T07:57:19;1.25;;;0.88;;
62030;SDS011;62035;52.094;5.112;2022-12-31T08:00:00;4.32;;;1.00;;
62030;SDS011;62035;52.094;5.112;2022-12-31T08:02:44;2.25;;;1.10;;
62030;SDS011;62035;52.094;5.112;2022-12-31T08:05:36;1.92;;;1.05;;
62030;SDS011;62035;52.094;5.112;2022-12-31T08:08:20;2.38;;;1.00;;
62030;SDS011;62035;52.094;5.112;2022-12-31T08:11:05;6.43;;;1.40;;
62030;SDS011;62035;52.094;5.112;2022-12-31T08:13:45;3.25;;;1.10;;
62030;SDS011;62035;52.094;5.112;2022-12-31T08:16:15;3.25;;;1.45;;
62030;SDS011;62035;52.094;5.112;2022-12-31T08:18:45;2.72;;;1.17;;
62030;SDS011;62035;52.094;5.112;2022-12-31T08:21:16;5.03;;;1.30;;
62030;SDS011;62035;52.094;5.112;2022-12-31T08:24:04;1.73;;;1.10;;
62030;SDS011;62035;52.094;5.112;2022-12-31T08:26:46;2.30;;;1.20;;
62030;SDS011;62035;52.094;5.112;2022-12-31T08:29:33;2.22;;;1.10;;
62030;SDS011;62035;52.094;5.112;2022-12-31T08:32:11;1.60;;;1.10;;
62030;SDS011;62035;52.094;5.112;2022-12-31T08:34:50;4.88;;;1.30;;
62030;SDS011;62035;52.094;5.112;2022-12-31T08:37:31;4.15;;;1.23;;
62030;SDS011;62035;52.094;5.112;2022-12-31T08:40:09;2.22;;;1.00;;
62030;SDS011;62035;52.094;5.112;2022-12-31T08:42:54;3.00;;;1.20;;
62030;SDS011;62035;52.094;5.112;2022-12-31T08:45:40;5.15;;;1.10;;
62030;SDS011;62035;52.094;5.112;2022-12-31T08:48:16;2.00;;;0.90;;
62030;SDS011;62035;52.094;5.112;2022-12-31T08:50:57;1.77;;;1.20;;
62030;SDS011;62035;52.094;5.112;2022-12-31T08:53:25;2.35;;;1.05;;
62030;SDS011;62035;52.094;5.112;2022-12-31T08:55:55;3.70;;;1.08;;
62030;SDS011;62035;52.094;5.112;2022-12-31T08:58:34;3.75;;;1.10;;
62030;SDS011;62035;52.094;5.112;2022-12-31T09:01:12;4.40;;;1.17;;
62030;SDS011;62035;52.094;5.112;2022-12-31T09:03:52;3.75;;;1.30;;
62030;SDS011;62035;52.094;5.112;2022-12-31T09:06:35;5.10;;;1.20;;
62030;SDS011;62035;52.094;5.112;2022-12-31T09:09:11;3.00;;;1.13;;
62030;SDS011;62035;52.094;5.112;2022-12-31T09:11:49;3.55;;;1.90;;
62030;SDS011;62035;52.094;5.112;2022-12-31T09:14:40;7.10;;;1.48;;
62030;SDS011;62035;52.094;5.112;2022-12-31T09:17:18;5.05;;;1.25;;
62030;SDS011;62035;52.094;5.112;2022-12-31T09:20:12;4.72;;;1.50;;
62030;SDS011;62035;52.094;5.112;2022-12-31T09:22:46;5.93;;;1.23;;
62030;SDS011;62035;52.094;5.112;2022-12-31T09:25:15;3.22;;;1.20;;
62030;SDS011;62035;52.094;5.112;2022-12-31T09:27:49;4.88;;;1.48;;
62030;SDS011;62035;52.094;5.112;2022-12-31T09:30:41;5.53;;;1.50;;
62030;SDS011;62035;52.094;5.112;2022-12-31T09:33:30;3.97;;;1.20;;
62030;SDS011;62035;52.094;5.112;2022-12-31T09:36:09;2.25;;;1.10;;
62030;SDS011;62035;52.094;5.112;2022-12-31T09:38:47;7.63;;;2.17;;
62030;SDS011;62035;52.094;5.112;2022-12-31T09:41:35;4.60;;;1.58;;
62030;SDS011;62035;52.094;5.112;2022-12-31T09:47:54;8.63;;;1.60;;
62030;SDS011;62035;52.094;5.112;2022-12-31T09:51:16;5.38;;;1.33;;
62030;SDS011;62035;52.094;5.112;2022-12-31T09:54:21;6.60;;;1.85;;
62030;SDS011;62035;52.094;5.112;2022-12-31T09:57:12;6.20;;;1.30;;
62030;SDS011;62035;52.094;5.112;2022-12-31T10:00:00;3.45;;;1.20;;
62030;SDS011;62035;52.094;5.112;2022-12-31T10:02:47;3.08;;;1.30;;
62030;SDS011;62035;52.094;5.112;2022-12-31T10:05:41;4.50;;;1.20;;
62030;SDS011;62035;52.094;5.112;2022-12-31T10:08:29;6.53;;;1.40;;
62030;SDS011;62035;52.094;5.112;2022-12-31T10:11:18;5.00;;;1.40;;
62030;SDS011;62035;52.094;5.112;2022-12-31T10:14:03;2.83;;;1.20;;
62030;SDS011;62035;52.094;5.112;2022-12-31T10:19:46;5.15;;;1.27;;
62030;SDS011;62035;52.094;5.112;2022-12-31T10:22:46;2.53;;;1.30;;
62030;SDS011;62035;52.094;5.112;2022-12-31T10:26:04;3.53;;;1.27;;
62030;SDS011;62035;52.094;5.112;2022-12-31T10:29:07;4.32;;;1.52;;
62030;SDS011;62035;52.094;5.112;2022-12-31T10:31:54;4.43;;;1.50;;
62030;SDS011;62035;52.094;5.112;2022-12-31T10:34:46;4.68;;;1.38;;
62030;SDS011;62035;52.094;5.112;2022-12-31T10:37:26;7.60;;;1.90;;
62030;SDS011;62035;52.094;5.112;2022-12-31T10:40:10;2.88;;;1.58;;
62030;SDS011;62035;52.094;5.112;2022-12-31T10:42:57;3.42;;;1.45;;
62030;SDS011;62035;52.094;5.112;2022-12-31T10:46:15;3.72;;;1.45;;
62030;SDS011;62035;52.094;5.112;2022-12-31T10:55:58;3.25;;;1.58;;
62030;SDS011;62035;52.094;5.112;2022-12-31T11:09:14;3.88;;;1.70;;
62030;SDS011;62035;52.094;5.112;2022-12-31T11:15:14;5.85;;;1.80;;
62030;SDS011;62035;52.094;5.112;2022-12-31T11:18:05;6.78;;;1.80;;
62030;SDS011;62035;52.094;5.112;2022-12-31T11:20:53;9.50;;;2.22;;
62030;SDS011;62035;52.094;5.112;2022-12-31T11:23:44;12.50;;;2.13;;
62030;SDS011;62035;52.094;5.112;2022-12-31T11:26:33;7.05;;;1.88;;
62030;SDS011;62035;52.094;5.112;2022-12-31T11:29:22;5.72;;;1.90;;
62030;SDS011;62035;52.094;5.112;2022-12-31T11:32:14;6.05;;;1.90;;
62030;SDS011;62035;52.094;5.112;2022-12-31T11:35:02;3.67;;;1.65;;
62030;SDS011;62035;52.094;5.112;2022-12-31T11:37:47;3.75;;;1.70;;
62030;SDS011;62035;52.094;5.112;2022-12-31T11:40:26;6.18;;;1.83;;
62030;SDS011;62035;52.094;5.112;2022-12-31T11:43:15;6.68;;;2.30;;
62030;SDS011;62035;52.094;5.112;2022-12-31T11:46:07;4.85;;;1.80;;
62030;SDS011;62035;52.094;5.112;2022-12-31T11:49:03;8.00;;;1.67;;
62030;SDS011;62035;52.094;5.112;2022-12-31T11:51:46;5.90;;;1.90;;
62030;SDS011;62035;52.094;5.112;2022-12-31T11:57:45;7.05;;;2.10;;
62030;SDS011;62035;52.094;5.112;2022-12-31T12:00:17;5.72;;;1.85;;
62030;SDS011;62035;52.094;5.112;2022-12-31T12:02:48;5.95;;;2.20;;
62030;SDS011;62035;52.094;5.112;2022-12-31T12:05:21;7.90;;;2.08;;
62030;SDS011;62035;52.094;5.112;2022-12-31T12:07:51;5.85;;;1.70;;
62030;SDS011;62035;52.094;5.112;2022-12-31T12:10:21;5.60;;;1.60;;
62030;SDS011;62035;52.094;5.112;2022-12-31T12:12:51;5.15;;;1.63;;
62030;SDS011;62035;52.094;5.112;2022-12-31T12:15:22;7.38;;;1.70;;
62030;SDS011;62035;52.094;5.112;2022-12-31T12:17:55;5.85;;;1.67;;
62030;SDS011;62035;52.094;5.112;2022-12-31T12:20:29;9.80;;;1.77;;
62030;SDS011;62035;52.094;5.112;2022-12-31T12:23:00;6.68;;;1.77;;
62030;SDS011;62035;52.094;5.112;2022-12-31T12:25:41;7.40;;;1.60;;
62030;SDS011;62035;52.094;5.112;2022-12-31T12:28:16;10.90;;;1.58;;
62030;SDS011;62035;52.094;5.112;2022-12-31T12:30:52;8.23;;;1.70;;
62030;SDS011;62035;52.094;5.112;2022-12-31T12:33:22;4.95;;;1.73;;
62030;SDS011;62035;52.094;5.112;2022-12-31T12:35:52;7.47;;;2.17;;
62030;SDS011;62035;52.094;5.112;2022-12-31T12:38:20;5.25;;;1.88;;
62030;SDS011;62035;52.094;5.112;2022-12-31T12:40:54;3.35;;;1.67;;
62030;SDS011;62035;52.094;5.112;2022-12-31T12:43:25;7.40;;;1.70;;
62030;SDS011;62035;52.094;5.112;2022-12-31T12:45:57;6.78;;;1.65;;
62030;SDS011;62035;52.094;5.112;2022-12-31T12:48:30;6.53;;;2.13;;
62030;SDS011;62035;52.094;5.112;2022-12-31T12:51:14;8.00;;;2.20;;
62030;SDS011;62035;52.094;5.112;2022-12-31T12:53:59;4.85;;;1.67;;
62030;SDS011;62035;52.094;5.112;2022-12-31T12:56:44;5.25;;;1.80;;
62030;SDS011;62035;52.094;5.112;2022-12-31T12:59:33;5.22;;;1.70;;
62030;SDS011;62035;52.094;5.112;2022-12-31T13:02:40;7.00;;;1.90;;
62030;SDS011;62035;52.094;5.112;2022-12-31T13:05:39;9.93;;;2.10;;
62030;SDS011;62035;52.094;5.112;2022-12-31T13:08:28;6.57;;;2.10;;
62030;SDS011;62035;52.094;5.112;2022-12-31T13:11:20;7.22;;;1.98;;
62030;SDS011;62035;52.094;5.112;2022-12-31T13:14:01;7.63;;;1.80;;
62030;SDS011;62035;52.094;5.112;2022-12-31T13:16:48;6.93;;;1.77;;
62030;SDS011;62035;52.094;5.112;2022-12-31T13:19:26;8.35;;;1.80;;
62030;SDS011;62035;52.094;5.112;2022-12-31T13:22:07;7.38;;;1.70;;
62030;SDS011;62035;52.094;5.112;2022-12-31T13:24:48;3.67;;;1.75;;
62030;SDS011;62035;52.094;5.112;2022-12-31T13:27:31;8.73;;;2.63;;
62030;SDS011;62035;52.094;5.112;2022-12-31T13:30:08;8.73;;;2.53;;
62030;SDS011;62035;52.094;5.112;2022-12-31T13:32:44;6.50;;;2.30;;
62030;SDS011;62035;52.094;5.112;2022-12-31T13:35:20;5.57;;;1.90;;
62030;SDS011;62035;52.094;5.112;2022-12-31T13:37:56;5.65;;;2.15;;
62030;SDS011;62035;52.094;5.112;2022-12-31T13:40:33;7.53;;;2.13;;
62030;SDS011;62035;52.094;5.112;2022-12-31T13:43:14;5.28;;;1.90;;
62030;SDS011;62035;52.094;5.112;2022-12-31T13:45:53;7.38;;;1.80;;
62030;SDS011;62035;52.094;5.112;2022-12-31T13:48:33;5.43;;;1.88;;
62030;SDS011;62035;52.094;5.112;2022-12-31T13:51:08;7.78;;;2.25;;
62030;SDS011;62035;52.094;5.112;2022-12-31T13:53:46;8.43;;;2.20;;
62030;SDS011;62035;52.094;5.112;2022-12-31T13:56:26;5.80;;;1.83;;
62030;SDS011;62035;52.094;5.112;2022-12-31T13:59:03;6.03;;;2.30;;
62030;SDS011;62035;52.094;5.112;2022-12-31T14:02:00;6.00;;;1.80;;
62030;SDS011;62035;52.094;5.112;2022-12-31T14:04:51;5.47;;;1.98;;
62030;SDS011;62035;52.094;5.112;2022-12-31T14:07:27;5.00;;;1.70;;
62030;SDS011;62035;52.094;5.112;2022-12-31T14:10:07;7.28;;;1.73;;
62030;SDS011;62035;52.094;5.112;2022-12-31T14:12:42;7.05;;;2.45;;
62030;SDS011;62035;52.094;5.112;2022-12-31T14:15:23;7.45;;;2.08;;
62030;SDS011;62035;52.094;5.112;2022-12-31T14:18:00;7.28;;;2.05;;
62030;SDS011;62035;52.094;5.112;2022-12-31T14:20:41;7.45;;;1.80;;
62030;SDS011;62035;52.094;5.112;2022-12-31T14:23:17;8.88;;;2.50;;
62030;SDS011;62035;52.094;5.112;2022-12-31T14:25:56;6.88;;;2.50;;
62030;SDS011;62035;52.094;5.112;2022-12-31T14:28:31;7.55;;;2.10;;
62030;SDS011;62035;52.094;5.112;2022-12-31T14:31:08;7.32;;;2.05;;
62030;SDS011;62035;52.094;5.112;2022-12-31T14:33:53;7.68;;;2.20;;
62030;SDS011;62035;52.094;5.112;2022-12-31T14:36:33;7.22;;;2.08;;
62030;SDS011;62035;52.094;5.112;2022-12-31T14:39:19;8.95;;;2.05;;
62030;SDS011;62035;52.094;5.112;2022-12-31T14:42:17;5.65;;;2.13;;
62030;SDS011;62035;52.094;5.112;2022-12-31T14:44:58;8.20;;;2.50;;
62030;SDS011;62035;52.094;5.112;2022-12-31T14:47:45;5.22;;;2.13;;
62030;SDS011;62035;52.094;5.112;2022-12-31T14:50:21;5.80;;;2.60;;
62030;SDS011;62035;52.094;5.112;2022-12-31T14:55:25;8.48;;;2.50;;
62030;SDS011;62035;52.094;5.112;2022-12-31T14:57:56;8.23;;;4.47;;
62030;SDS011;62035;52.094;5.112;2022-12-31T15:00:28;12.48;;;3.35;;
62030;SDS011;62035;52.094;5.112;2022-12-31T15:03:00;12.15;;;3.50;;
62030;SDS011;62035;52.094;5.112;2022-12-31T15:05:32;9.50;;;3.63;;
62030;SDS011;62035;52.094;5.112;2022-12-31T15:08:12;13.40;;;7.47;;
62030;SDS011;62035;52.094;5.112;2022-12-31T15:11:08;7.90;;;2.35;;
62030;SDS011;62035;52.094;5.112;2022-12-31T15:14:12;14.00;;;3.00;;
62030;SDS011;62035;52.094;5.112;2022-12-31T15:17:10;8.90;;;2.80;;
62030;SDS011;62035;52.094;5.112;2022-12-31T15:20:05;9.45;;;3.28;;
62030;SDS011;62035;52.094;5.112;2022-12-31T15:23:01;10.65;;;4.30;;
62030;SDS011;62035;52.094;5.112;2022-12-31T15:25:29;15.43;;;3.78;;
62030;SDS011;62035;52.094;5.112;2022-12-31T15:28:01;9.23;;;3.10;;
62030;SDS011;62035;52.094;5.112;2022-12-31T15:33:06;11.32;;;3.40;;
62030;SDS011;62035;52.094;5.112;2022-12-31T15:35:45;18.83;;;3.30;;
62030;SDS011;62035;52.094;5.112;2022-12-31T15:41:11;13.50;;;3.35;;
62030;SDS011;62035;52.094;5.112;2022-12-31T15:43:44;9.45;;;3.22;;
62030;SDS011;62035;52.094;5.112;2022-12-31T15:46:17;10.40;;;2.78;;
62030;SDS011;62035;52.094;5.112;2022-12-31T15:48:50;9.68;;;2.78;;
62030;SDS011;62035;52.094;5.112;2022-12-31T15:51:27;16.05;;;3.13;;
62030;SDS011;62035;52.094;5.112;2022-12-31T15:53:59;10.80;;;2.92;;
62030;SDS011;62035;52.094;5.112;2022-12-31T15:56:33;16.85;;;3.45;;
62030;SDS011;62035;52.094;5.112;2022-12-31T15:59:10;14.50;;;3.13;;
62030;SDS011;62035;52.094;5.112;2022-12-31T16:04:15;12.93;;;3.10;;
62030;SDS011;62035;52.094;5.112;2022-12-31T16:06:46;11.20;;;3.00;;
62030;SDS011;62035;52.094;5.112;2022-12-31T16:09:18;12.68;;;3.30;;
62030;SDS011;62035;52.094;5.112;2022-12-31T16:11:51;10.93;;;3.05;;
62030;SDS011;62035;52.094;5.112;2022-12-31T16:14:21;12.50;;;3.35;;
62030;SDS011;62035;52.094;5.112;2022-12-31T16:16:54;13.00;;;4.47;;
62030;SDS011;62035;52.094;5.112;2022-12-31T16:19:30;9.03;;;2.93;;
62030;SDS011;62035;52.094;5.112;2022-12-31T16:22:01;13.38;;;4.90;;
62030;SDS011;62035;52.094;5.112;2022-12-31T16:24:57;15.23;;;3.83;;
62030;SDS011;62035;52.094;5.112;2022-12-31T16:27:27;12.68;;;4.25;;
62030;SDS011;62035;52.094;5.112;2022-12-31T16:29:57;17.33;;;4.28;;
62030;SDS011;62035;52.094;5.112;2022-12-31T16:32:32;12.23;;;4.07;;